Аэропорт: Пашковский. Краснодар

ICAO: URKK

METAR:
2024-04-22 23:00:00
URKK 222300Z 26003MPS CAVOK 10/06 Q1021 R05R/CLRD70 NOSIG RMK QFE762
TAF:
2024-04-22 22:46:00
TAF COR URKK 222246Z 2300/2324 24003G08MPS 6000 SCT016 
  TEMPO 2300/2306 0300 FG SCT002 
  FM230600 27003G08MPS 9999 SCT030 
  BECMG 2310/2311 32003MPS 
  BECMG 2318/2320 08003G08MPS